sensor_id;sensor_type;location;lat;lon;timestamp;pressure;altitude;pressure_sealevel;temperature;humidity
35507;BME280;36461;52.018;21.036;2022-11-12T00:00:55;101693.21;;;10.77;87.85
35507;BME280;36461;52.018;21.036;2022-11-12T00:03:43;101696.62;;;10.79;87.81
35507;BME280;36461;52.018;21.036;2022-11-12T00:06:27;101693.16;;;10.80;87.83
35507;BME280;36461;52.018;21.036;2022-11-12T00:09:12;101697.06;;;10.80;87.80
35507;BME280;36461;52.018;21.036;2022-11-12T00:11:56;101700.11;;;10.80;87.75
35507;BME280;36461;52.018;21.036;2022-11-12T00:14:41;101700.53;;;10.79;87.83
35507;BME280;36461;52.018;21.036;2022-11-12T00:17:26;101706.58;;;10.81;87.80
35507;BME280;36461;52.018;21.036;2022-11-12T00:20:11;101707.86;;;10.83;87.72
35507;BME280;36461;52.018;21.036;2022-11-12T00:22:56;101711.30;;;10.83;87.70
35507;BME280;36461;52.018;21.036;2022-11-12T00:25:40;101706.55;;;10.83;87.77
35507;BME280;36461;52.018;21.036;2022-11-12T00:28:25;101700.89;;;10.85;87.70
35507;BME280;36461;52.018;21.036;2022-11-12T00:31:11;101699.63;;;10.82;87.64
35507;BME280;36461;52.018;21.036;2022-11-12T00:33:56;101704.37;;;10.82;87.80
35507;BME280;36461;52.018;21.036;2022-11-12T00:36:41;101709.57;;;10.82;87.74
35507;BME280;36461;52.018;21.036;2022-11-12T00:39:26;101715.65;;;10.83;87.77
35507;BME280;36461;52.018;21.036;2022-11-12T00:42:11;101712.17;;;10.82;87.75
35507;BME280;36461;52.018;21.036;2022-11-12T00:44:56;101719.97;;;10.82;87.77
35507;BME280;36461;52.018;21.036;2022-11-12T00:47:41;101710.89;;;10.81;87.69
35507;BME280;36461;52.018;21.036;2022-11-12T00:50:26;101709.59;;;10.81;87.74
35507;BME280;36461;52.018;21.036;2022-11-12T00:53:10;101713.52;;;10.79;87.74
35507;BME280;36461;52.018;21.036;2022-11-12T00:56:00;101710.07;;;10.79;87.72
35507;BME280;36461;52.018;21.036;2022-11-12T00:58:48;101710.94;;;10.78;87.78
35507;BME280;36461;52.018;21.036;2022-11-12T01:01:33;101705.75;;;10.78;87.72
35507;BME280;36461;52.018;21.036;2022-11-12T01:04:18;101705.30;;;10.78;87.74
35507;BME280;36461;52.018;21.036;2022-11-12T01:07:03;101705.30;;;10.78;87.78
35507;BME280;36461;52.018;21.036;2022-11-12T01:09:47;101707.05;;;10.78;87.70
35507;BME280;36461;52.018;21.036;2022-11-12T01:12:33;101705.75;;;10.78;87.87
35507;BME280;36461;52.018;21.036;2022-11-12T01:15:18;101703.12;;;10.79;87.91
35507;BME280;36461;52.018;21.036;2022-11-12T01:18:03;101691.00;;;10.81;87.78
35507;BME280;36461;52.018;21.036;2022-11-12T01:20:47;101690.56;;;10.80;87.77
35507;BME280;36461;52.018;21.036;2022-11-12T01:23:37;101693.61;;;10.78;87.72
35507;BME280;36461;52.018;21.036;2022-11-12T01:26:24;101695.38;;;10.76;87.79
35507;BME280;36461;52.018;21.036;2022-11-12T01:29:11;101686.72;;;10.77;87.84
35507;BME280;36461;52.018;21.036;2022-11-12T01:31:56;101689.30;;;10.79;87.82
35507;BME280;36461;52.018;21.036;2022-11-12T01:34:40;101692.33;;;10.77;87.81
35507;BME280;36461;52.018;21.036;2022-11-12T01:37:25;101694.48;;;10.79;87.90
35507;BME280;36461;52.018;21.036;2022-11-12T01:40:11;101696.20;;;10.78;87.69
35507;BME280;36461;52.018;21.036;2022-11-12T01:42:56;101697.53;;;10.77;87.90
35507;BME280;36461;52.018;21.036;2022-11-12T01:45:44;101690.63;;;10.74;87.90
35507;BME280;36461;52.018;21.036;2022-11-12T01:48:40;101692.78;;;10.76;88.04
35507;BME280;36461;52.018;21.036;2022-11-12T01:51:24;101693.63;;;10.77;87.97
35507;BME280;36461;52.018;21.036;2022-11-12T01:54:14;101694.06;;;10.78;88.00
35507;BME280;36461;52.018;21.036;2022-11-12T01:57:01;101697.50;;;10.78;87.99
35507;BME280;36461;52.018;21.036;2022-11-12T01:59:47;101696.66;;;10.78;87.97
35507;BME280;36461;52.018;21.036;2022-11-12T02:02:35;101704.00;;;10.78;87.99
35507;BME280;36461;52.018;21.036;2022-11-12T02:05:22;101706.16;;;10.80;88.05
35507;BME280;36461;52.018;21.036;2022-11-12T02:08:09;101701.40;;;10.78;87.93
35507;BME280;36461;52.018;21.036;2022-11-12T02:10:56;101709.62;;;10.79;87.93
35507;BME280;36461;52.018;21.036;2022-11-12T02:13:42;101704.05;;;10.75;87.91
35507;BME280;36461;52.018;21.036;2022-11-12T02:16:49;101713.13;;;10.75;88.04
35507;BME280;36461;52.018;21.036;2022-11-12T02:19:36;101712.69;;;10.77;88.08
35507;BME280;36461;52.018;21.036;2022-11-12T02:22:21;101708.32;;;10.79;88.03
35507;BME280;36461;52.018;21.036;2022-11-12T02:25:09;101711.37;;;10.79;88.05
35507;BME280;36461;52.018;21.036;2022-11-12T02:27:57;101709.62;;;10.79;88.04
35507;BME280;36461;52.018;21.036;2022-11-12T02:30:47;101710.94;;;10.78;88.07
35507;BME280;36461;52.018;21.036;2022-11-12T02:33:33;101700.58;;;10.76;88.19
35507;BME280;36461;52.018;21.036;2022-11-12T02:36:18;101705.77;;;10.76;88.25
35507;BME280;36461;52.018;21.036;2022-11-12T02:39:04;101714.84;;;10.78;88.20
35507;BME280;36461;52.018;21.036;2022-11-12T02:41:50;101716.20;;;10.71;88.01
35507;BME280;36461;52.018;21.036;2022-11-12T02:44:35;101713.18;;;10.72;88.26
35507;BME280;36461;52.018;21.036;2022-11-12T02:47:19;101714.91;;;10.73;88.31
35507;BME280;36461;52.018;21.036;2022-11-12T02:50:05;101714.89;;;10.71;88.43
35507;BME280;36461;52.018;21.036;2022-11-12T02:52:51;101720.08;;;10.74;88.50
35507;BME280;36461;52.018;21.036;2022-11-12T02:55:35;101714.91;;;10.73;88.49
35507;BME280;36461;52.018;21.036;2022-11-12T02:58:21;101716.16;;;10.76;88.44
35507;BME280;36461;52.018;21.036;2022-11-12T03:01:05;101706.19;;;10.75;88.51
35507;BME280;36461;52.018;21.036;2022-11-12T03:03:50;101713.13;;;10.75;88.50
35507;BME280;36461;52.018;21.036;2022-11-12T03:06:35;101717.05;;;10.73;88.57
35507;BME280;36461;52.018;21.036;2022-11-12T03:09:20;101717.49;;;10.71;88.54
35507;BME280;36461;52.018;21.036;2022-11-12T03:12:05;101721.40;;;10.73;88.56
35507;BME280;36461;52.018;21.036;2022-11-12T03:14:50;101720.50;;;10.74;88.56
35507;BME280;36461;52.018;21.036;2022-11-12T03:17:34;101724.44;;;10.71;88.44
35507;BME280;36461;52.018;21.036;2022-11-12T03:20:19;101723.16;;;10.69;88.57
35507;BME280;36461;52.018;21.036;2022-11-12T03:23:06;101724.50;;;10.66;88.50
35507;BME280;36461;52.018;21.036;2022-11-12T03:25:52;101722.75;;;10.67;88.52
35507;BME280;36461;52.018;21.036;2022-11-12T03:28:37;101721.88;;;10.68;88.61
35507;BME280;36461;52.018;21.036;2022-11-12T03:31:22;101730.98;;;10.68;88.40
35507;BME280;36461;52.018;21.036;2022-11-12T03:34:07;101730.95;;;10.69;88.60
35507;BME280;36461;52.018;21.036;2022-11-12T03:36:51;101733.09;;;10.73;88.43
35507;BME280;36461;52.018;21.036;2022-11-12T03:39:36;101729.18;;;10.71;88.33
35507;BME280;36461;52.018;21.036;2022-11-12T03:42:20;101732.68;;;10.70;88.37
35507;BME280;36461;52.018;21.036;2022-11-12T03:45:07;101730.06;;;10.72;88.50
35507;BME280;36461;52.018;21.036;2022-11-12T03:47:53;101734.36;;;10.74;88.44
35507;BME280;36461;52.018;21.036;2022-11-12T03:50:39;101734.83;;;10.71;88.14
35507;BME280;36461;52.018;21.036;2022-11-12T03:53:25;101729.18;;;10.71;88.18
35507;BME280;36461;52.018;21.036;2022-11-12T03:56:10;101731.80;;;10.70;88.24
35507;BME280;36461;52.018;21.036;2022-11-12T03:58:55;101727.48;;;10.69;88.12
35507;BME280;36461;52.018;21.036;2022-11-12T04:01:40;101721.44;;;10.68;88.17
35507;BME280;36461;52.018;21.036;2022-11-12T04:04:24;101733.57;;;10.68;88.23
35507;BME280;36461;52.018;21.036;2022-11-12T04:07:12;101726.17;;;10.69;88.19
35507;BME280;36461;52.018;21.036;2022-11-12T04:10:15;101720.56;;;10.69;88.14
35507;BME280;36461;52.018;21.036;2022-11-12T04:13:00;101719.73;;;10.66;87.78
35507;BME280;36461;52.018;21.036;2022-11-12T04:16:12;101728.39;;;10.65;87.89
35507;BME280;36461;52.018;21.036;2022-11-12T04:19:20;101725.37;;;10.65;87.83
35507;BME280;36461;52.018;21.036;2022-11-12T04:22:25;101726.24;;;10.64;87.92
35507;BME280;36461;52.018;21.036;2022-11-12T04:25:10;101726.70;;;10.64;88.12
35507;BME280;36461;52.018;21.036;2022-11-12T04:28:13;101723.64;;;10.64;88.26
35507;BME280;36461;52.018;21.036;2022-11-12T04:30:58;101723.62;;;10.66;88.37
35507;BME280;36461;52.018;21.036;2022-11-12T04:33:43;101716.71;;;10.66;88.43
35507;BME280;36461;52.018;21.036;2022-11-12T04:36:28;101719.73;;;10.66;88.34
35507;BME280;36461;52.018;21.036;2022-11-12T04:39:12;101722.34;;;10.64;88.22
35507;BME280;36461;52.018;21.036;2022-11-12T04:41:58;101717.60;;;10.64;87.92
35507;BME280;36461;52.018;21.036;2022-11-12T04:45:05;101713.32;;;10.60;87.83
35507;BME280;36461;52.018;21.036;2022-11-12T04:47:52;101712.02;;;10.60;87.71
35507;BME280;36461;52.018;21.036;2022-11-12T04:50:38;101708.55;;;10.59;87.78
35507;BME280;36461;52.018;21.036;2022-11-12T04:53:25;101708.12;;;10.58;87.91
35507;BME280;36461;52.018;21.036;2022-11-12T04:56:11;101705.14;;;10.55;87.85
35507;BME280;36461;52.018;21.036;2022-11-12T04:58:56;101712.03;;;10.56;87.86
35507;BME280;36461;52.018;21.036;2022-11-12T05:01:41;101709.05;;;10.55;87.86
35507;BME280;36461;52.018;21.036;2022-11-12T05:04:25;101713.35;;;10.55;87.79
35507;BME280;36461;52.018;21.036;2022-11-12T05:07:12;101708.19;;;10.53;87.77
35507;BME280;36461;52.018;21.036;2022-11-12T05:09:58;101707.75;;;10.52;87.63
35507;BME280;36461;52.018;21.036;2022-11-12T05:12:43;101711.65;;;10.52;87.61
35507;BME280;36461;52.018;21.036;2022-11-12T05:15:30;101710.35;;;10.52;87.58
35507;BME280;36461;52.018;21.036;2022-11-12T05:18:14;101707.75;;;10.52;87.59
35507;BME280;36461;52.018;21.036;2022-11-12T05:20:59;101712.52;;;10.51;87.55
35507;BME280;36461;52.018;21.036;2022-11-12T05:23:46;101712.99;;;10.49;87.58
35507;BME280;36461;52.018;21.036;2022-11-12T05:26:31;101712.56;;;10.48;87.63
35507;BME280;36461;52.018;21.036;2022-11-12T05:29:16;101708.70;;;10.45;87.54
35507;BME280;36461;52.018;21.036;2022-11-12T05:32:01;101705.66;;;10.46;87.56
35507;BME280;36461;52.018;21.036;2022-11-12T05:34:47;101711.72;;;10.45;87.37
35507;BME280;36461;52.018;21.036;2022-11-12T05:37:31;101709.14;;;10.43;87.43
35507;BME280;36461;52.018;21.036;2022-11-12T05:40:16;101713.52;;;10.38;86.84
35507;BME280;36461;52.018;21.036;2022-11-12T05:43:01;101720.09;;;10.29;86.53
35507;BME280;36461;52.018;21.036;2022-11-12T05:45:46;101724.00;;;10.25;86.67
35507;BME280;36461;52.018;21.036;2022-11-12T05:48:30;101723.16;;;10.23;86.49
35507;BME280;36461;52.018;21.036;2022-11-12T05:51:15;101727.48;;;10.23;86.36
35507;BME280;36461;52.018;21.036;2022-11-12T05:54:01;101728.36;;;10.20;86.10
35507;BME280;36461;52.018;21.036;2022-11-12T05:56:47;101734.45;;;10.16;85.76
35507;BME280;36461;52.018;21.036;2022-11-12T05:59:31;101738.41;;;10.12;85.61
35507;BME280;36461;52.018;21.036;2022-11-12T06:02:16;101743.14;;;10.12;85.59
35507;BME280;36461;52.018;21.036;2022-11-12T06:05:01;101744.91;;;10.10;85.38
35507;BME280;36461;52.018;21.036;2022-11-12T06:07:47;101749.23;;;10.08;85.37
35507;BME280;36461;52.018;21.036;2022-11-12T06:10:32;101751.02;;;10.04;85.06
35507;BME280;36461;52.018;21.036;2022-11-12T06:13:18;101745.41;;;10.02;85.00
35507;BME280;36461;52.018;21.036;2022-11-12T06:16:04;101748.87;;;10.01;85.24
35507;BME280;36461;52.018;21.036;2022-11-12T06:18:49;101746.70;;;10.00;85.14
35507;BME280;36461;52.018;21.036;2022-11-12T06:21:34;101757.52;;;10.00;85.13
35507;BME280;36461;52.018;21.036;2022-11-12T06:24:19;101753.66;;;9.97;85.01
35507;BME280;36461;52.018;21.036;2022-11-12T06:27:03;101759.28;;;9.98;84.90
35507;BME280;36461;52.018;21.036;2022-11-12T06:29:48;101757.14;;;9.94;84.79
35507;BME280;36461;52.018;21.036;2022-11-12T06:32:33;101752.80;;;9.95;84.65
35507;BME280;36461;52.018;21.036;2022-11-12T06:35:19;101762.34;;;9.93;84.72
35507;BME280;36461;52.018;21.036;2022-11-12T06:38:04;101766.23;;;9.93;84.72
35507;BME280;36461;52.018;21.036;2022-11-12T06:40:48;101766.23;;;9.93;84.73
35507;BME280;36461;52.018;21.036;2022-11-12T06:43:34;101757.57;;;9.92;84.56
35507;BME280;36461;52.018;21.036;2022-11-12T06:46:18;101764.94;;;9.93;84.69
35507;BME280;36461;52.018;21.036;2022-11-12T06:49:03;101768.83;;;9.93;84.34
35507;BME280;36461;52.018;21.036;2022-11-12T06:51:51;101764.50;;;9.91;84.41
35507;BME280;36461;52.018;21.036;2022-11-12T06:54:36;101766.25;;;9.88;84.22
35507;BME280;36461;52.018;21.036;2022-11-12T06:57:21;101767.12;;;9.88;84.28
35507;BME280;36461;52.018;21.036;2022-11-12T07:00:07;101773.21;;;9.84;84.02
35507;BME280;36461;52.018;21.036;2022-11-12T07:02:54;101771.06;;;9.81;83.92
35507;BME280;36461;52.018;21.036;2022-11-12T07:05:39;101775.43;;;9.74;83.92
35507;BME280;36461;52.018;21.036;2022-11-12T07:08:24;101775.02;;;9.70;83.86
35507;BME280;36461;52.018;21.036;2022-11-12T07:11:09;101769.42;;;9.67;83.78
35507;BME280;36461;52.018;21.036;2022-11-12T07:13:54;101784.57;;;9.63;83.84
35507;BME280;36461;52.018;21.036;2022-11-12T07:16:39;101782.84;;;9.62;83.94
35507;BME280;36461;52.018;21.036;2022-11-12T07:19:24;101782.87;;;9.57;83.69
35507;BME280;36461;52.018;21.036;2022-11-12T07:22:09;101788.95;;;9.55;83.75
35507;BME280;36461;52.018;21.036;2022-11-12T07:24:54;101791.11;;;9.52;83.81
35507;BME280;36461;52.018;21.036;2022-11-12T07:27:39;101800.20;;;9.51;83.99
35507;BME280;36461;52.018;21.036;2022-11-12T07:30:23;101802.75;;;9.55;84.08
35507;BME280;36461;52.018;21.036;2022-11-12T07:33:07;101807.50;;;9.54;83.98
35507;BME280;36461;52.018;21.036;2022-11-12T07:35:59;101807.52;;;9.53;83.84
35507;BME280;36461;52.018;21.036;2022-11-12T07:38:48;101807.98;;;9.51;83.69
35507;BME280;36461;52.018;21.036;2022-11-12T07:41:36;101803.67;;;9.48;83.87
35507;BME280;36461;52.018;21.036;2022-11-12T07:44:21;101805.38;;;9.48;83.65
35507;BME280;36461;52.018;21.036;2022-11-12T07:47:05;101806.27;;;9.44;83.73
35507;BME280;36461;52.018;21.036;2022-11-12T07:49:50;101811.45;;;9.42;83.71
35507;BME280;36461;52.018;21.036;2022-11-12T07:52:35;101802.84;;;9.37;83.56
35507;BME280;36461;52.018;21.036;2022-11-12T07:55:19;101802.87;;;9.32;83.48
35507;BME280;36461;52.018;21.036;2022-11-12T07:58:04;101805.48;;;9.24;83.50
35507;BME280;36461;52.018;21.036;2022-11-12T08:00:49;101812.41;;;9.24;83.71
35507;BME280;36461;52.018;21.036;2022-11-12T08:03:35;101822.31;;;9.26;83.67
35507;BME280;36461;52.018;21.036;2022-11-12T08:06:20;101819.28;;;9.31;83.68
35507;BME280;36461;52.018;21.036;2022-11-12T08:09:07;101822.30;;;9.29;83.64
35507;BME280;36461;52.018;21.036;2022-11-12T08:11:53;101814.13;;;9.27;83.57
35507;BME280;36461;52.018;21.036;2022-11-12T08:14:38;101818.43;;;9.26;83.53
35507;BME280;36461;52.018;21.036;2022-11-12T08:17:22;101822.31;;;9.26;83.72
35507;BME280;36461;52.018;21.036;2022-11-12T08:20:08;101821.02;;;9.32;83.83
35507;BME280;36461;52.018;21.036;2022-11-12T08:22:58;101819.68;;;9.37;83.78
35507;BME280;36461;52.018;21.036;2022-11-12T08:25:43;101810.20;;;9.33;83.59
35507;BME280;36461;52.018;21.036;2022-11-12T08:28:31;101803.70;;;9.34;83.66
35507;BME280;36461;52.018;21.036;2022-11-12T08:31:20;101802.41;;;9.36;83.76
35507;BME280;36461;52.018;21.036;2022-11-12T08:34:05;101812.75;;;9.42;83.86
35507;BME280;36461;52.018;21.036;2022-11-12T08:36:56;101817.52;;;9.44;83.76
35507;BME280;36461;52.018;21.036;2022-11-12T08:39:41;101811.43;;;9.50;83.77
35507;BME280;36461;52.018;21.036;2022-11-12T08:42:26;101807.98;;;9.51;83.55
35507;BME280;36461;52.018;21.036;2022-11-12T08:45:11;101803.64;;;9.51;83.46
35507;BME280;36461;52.018;21.036;2022-11-12T08:48:04;101809.25;;;9.49;83.59
35507;BME280;36461;52.018;21.036;2022-11-12T08:50:51;101814.88;;;9.53;83.67
35507;BME280;36461;52.018;21.036;2022-11-12T08:53:36;101820.52;;;9.48;83.68
35507;BME280;36461;52.018;21.036;2022-11-12T08:56:21;101821.81;;;9.48;83.61
35507;BME280;36461;52.018;21.036;2022-11-12T08:59:06;101822.70;;;9.44;83.60
35507;BME280;36461;52.018;21.036;2022-11-12T09:01:50;101829.59;;;9.44;83.72
35507;BME280;36461;52.018;21.036;2022-11-12T09:04:35;101832.19;;;9.47;83.74
35507;BME280;36461;52.018;21.036;2022-11-12T09:07:20;101844.27;;;9.46;83.66
35507;BME280;36461;52.018;21.036;2022-11-12T09:10:06;101841.69;;;9.45;83.59
35507;BME280;36461;52.018;21.036;2022-11-12T09:12:51;101838.65;;;9.45;83.63
35507;BME280;36461;52.018;21.036;2022-11-12T09:15:37;101838.21;;;9.49;83.61
35507;BME280;36461;52.018;21.036;2022-11-12T09:18:22;101838.21;;;9.49;83.55
35507;BME280;36461;52.018;21.036;2022-11-12T09:21:09;101849.00;;;9.51;83.59
35507;BME280;36461;52.018;21.036;2022-11-12T09:23:56;101848.14;;;9.52;83.68
35507;BME280;36461;52.018;21.036;2022-11-12T09:26:40;101845.97;;;9.56;83.51
35507;BME280;36461;52.018;21.036;2022-11-12T09:29:25;101846.41;;;9.51;83.33
35507;BME280;36461;52.018;21.036;2022-11-12T09:32:09;101853.34;;;9.51;83.49
35507;BME280;36461;52.018;21.036;2022-11-12T09:34:54;101854.61;;;9.54;83.39
35507;BME280;36461;52.018;21.036;2022-11-12T09:37:39;101855.48;;;9.53;83.37
35507;BME280;36461;52.018;21.036;2022-11-12T09:40:31;101853.30;;;9.57;83.44
35507;BME280;36461;52.018;21.036;2022-11-12T09:43:32;101846.39;;;9.54;83.33
35507;BME280;36461;52.018;21.036;2022-11-12T09:46:28;101851.59;;;9.53;83.30
35507;BME280;36461;52.018;21.036;2022-11-12T09:49:35;101850.73;;;9.49;83.41
35507;BME280;36461;52.018;21.036;2022-11-12T09:52:26;101851.61;;;9.50;83.32
35507;BME280;36461;52.018;21.036;2022-11-12T09:58:20;101850.31;;;9.50;83.43
35507;BME280;36461;52.018;21.036;2022-11-12T10:01:21;101855.05;;;9.50;83.70
35507;BME280;36461;52.018;21.036;2022-11-12T10:10:49;101861.08;;;9.55;83.41
35507;BME280;36461;52.018;21.036;2022-11-12T10:20:25;101860.64;;;9.56;83.75
35507;BME280;36461;52.018;21.036;2022-11-12T10:26:07;101867.95;;;9.63;83.43
35507;BME280;36461;52.018;21.036;2022-11-12T10:32:07;101862.34;;;9.60;83.38
35507;BME280;36461;52.018;21.036;2022-11-12T10:34:53;101870.56;;;9.61;83.20
35507;BME280;36461;52.018;21.036;2022-11-12T10:40:44;101865.80;;;9.68;83.30
35507;BME280;36461;52.018;21.036;2022-11-12T10:43:29;101864.08;;;9.66;83.08
35507;BME280;36461;52.018;21.036;2022-11-12T10:46:19;101863.22;;;9.62;82.91
35507;BME280;36461;52.018;21.036;2022-11-12T10:52:19;101861.52;;;9.56;83.11
35507;BME280;36461;52.018;21.036;2022-11-12T10:55:21;101866.73;;;9.53;83.09
35507;BME280;36461;52.018;21.036;2022-11-12T11:01:04;101868.88;;;9.54;83.30
35507;BME280;36461;52.018;21.036;2022-11-12T11:03:56;101870.13;;;9.58;83.15
35507;BME280;36461;52.018;21.036;2022-11-12T11:06:42;101870.17;;;9.54;83.05
35507;BME280;36461;52.018;21.036;2022-11-12T11:09:27;101868.41;;;9.56;83.17
35507;BME280;36461;52.018;21.036;2022-11-12T11:12:26;101871.44;;;9.57;83.12
35507;BME280;36461;52.018;21.036;2022-11-12T11:15:21;101871.87;;;9.60;82.99
35507;BME280;36461;52.018;21.036;2022-11-12T11:18:09;101872.31;;;9.59;83.09
35507;BME280;36461;52.018;21.036;2022-11-12T11:27:38;101881.34;;;9.65;83.30
35507;BME280;36461;52.018;21.036;2022-11-12T11:30:32;101881.79;;;9.65;83.25
35507;BME280;36461;52.018;21.036;2022-11-12T11:33:28;101877.04;;;9.66;83.33
35507;BME280;36461;52.018;21.036;2022-11-12T11:46:15;101876.62;;;9.58;83.21
35507;BME280;36461;52.018;21.036;2022-11-12T11:49:14;101877.51;;;9.57;83.12
35507;BME280;36461;52.018;21.036;2022-11-12T11:55:23;101868.44;;;9.53;83.22
35507;BME280;36461;52.018;21.036;2022-11-12T11:58:32;101873.19;;;9.52;83.20
35507;BME280;36461;52.018;21.036;2022-11-12T12:01:30;101873.63;;;9.53;83.46
35507;BME280;36461;52.018;21.036;2022-11-12T12:04:43;101876.66;;;9.52;83.36
35507;BME280;36461;52.018;21.036;2022-11-12T12:13:54;101880.98;;;9.55;83.48
35507;BME280;36461;52.018;21.036;2022-11-12T12:16:50;101879.23;;;9.55;83.47
35507;BME280;36461;52.018;21.036;2022-11-12T12:19:50;101874.89;;;9.56;83.53
35507;BME280;36461;52.018;21.036;2022-11-12T12:23:12;101875.79;;;9.55;83.38
35507;BME280;36461;52.018;21.036;2022-11-12T12:26:11;101868.00;;;9.56;83.50
35507;BME280;36461;52.018;21.036;2022-11-12T12:29:06;101865.82;;;9.56;83.52
35507;BME280;36461;52.018;21.036;2022-11-12T12:35:24;101854.57;;;9.60;83.62
35507;BME280;36461;52.018;21.036;2022-11-12T12:44:40;101862.84;;;9.53;83.52
35507;BME280;36461;52.018;21.036;2022-11-12T12:47:47;101855.47;;;9.54;83.66
35507;BME280;36461;52.018;21.036;2022-11-12T12:50:35;101854.19;;;9.51;83.59
35507;BME280;36461;52.018;21.036;2022-11-12T12:53:30;101856.34;;;9.50;83.67
35507;BME280;36461;52.018;21.036;2022-11-12T12:59:18;101854.19;;;9.51;83.74
35507;BME280;36461;52.018;21.036;2022-11-12T13:02:12;101861.55;;;9.53;83.79
35507;BME280;36461;52.018;21.036;2022-11-12T13:04:55;101859.81;;;9.52;83.69
35507;BME280;36461;52.018;21.036;2022-11-12T13:07:43;101865.01;;;9.51;83.65
35507;BME280;36461;52.018;21.036;2022-11-12T13:13:29;101861.12;;;9.51;83.68
35507;BME280;36461;52.018;21.036;2022-11-12T13:22:52;101867.56;;;9.55;83.75
35507;BME280;36461;52.018;21.036;2022-11-12T13:25:37;101860.64;;;9.59;83.72
35507;BME280;36461;52.018;21.036;2022-11-12T13:28:22;101868.00;;;9.56;83.66
35507;BME280;36461;52.018;21.036;2022-11-12T13:31:25;101861.97;;;9.51;83.51
35507;BME280;36461;52.018;21.036;2022-11-12T13:34:21;101867.59;;;9.52;83.62
35507;BME280;36461;52.018;21.036;2022-11-12T13:37:04;101863.23;;;9.54;83.69
35507;BME280;36461;52.018;21.036;2022-11-12T13:39:50;101864.14;;;9.53;83.49
35507;BME280;36461;52.018;21.036;2022-11-12T13:42:35;101864.98;;;9.54;83.42
35507;BME280;36461;52.018;21.036;2022-11-12T13:45:38;101870.59;;;9.52;83.26
35507;BME280;36461;52.018;21.036;2022-11-12T13:48:55;101871.47;;;9.49;83.22
35507;BME280;36461;52.018;21.036;2022-11-12T13:51:39;101874.52;;;9.47;83.26
35507;BME280;36461;52.018;21.036;2022-11-12T13:54:31;101874.09;;;9.45;83.22
35507;BME280;36461;52.018;21.036;2022-11-12T13:57:24;101864.98;;;9.49;83.42
35507;BME280;36461;52.018;21.036;2022-11-12T14:00:20;101872.34;;;9.50;83.45
35507;BME280;36461;52.018;21.036;2022-11-12T14:03:07;101873.22;;;9.47;83.36
35507;BME280;36461;52.018;21.036;2022-11-12T14:05:52;101871.48;;;9.51;83.46
35507;BME280;36461;52.018;21.036;2022-11-12T14:09:28;101873.20;;;9.53;83.59
35507;BME280;36461;52.018;21.036;2022-11-12T14:21:18;101854.16;;;9.56;83.52
35507;BME280;36461;52.018;21.036;2022-11-12T14:24:04;101855.47;;;9.54;83.49
35507;BME280;36461;52.018;21.036;2022-11-12T14:26:50;101860.65;;;9.54;83.57
35507;BME280;36461;52.018;21.036;2022-11-12T14:29:35;101855.47;;;9.54;83.72
35507;BME280;36461;52.018;21.036;2022-11-12T14:32:20;101855.47;;;9.57;83.66
35507;BME280;36461;52.018;21.036;2022-11-12T14:35:19;101860.64;;;9.56;83.60
35507;BME280;36461;52.018;21.036;2022-11-12T14:38:21;101858.05;;;9.56;83.61
35507;BME280;36461;52.018;21.036;2022-11-12T14:41:15;101859.35;;;9.54;83.73
35507;BME280;36461;52.018;21.036;2022-11-12T14:44:03;101861.94;;;9.56;83.83
35507;BME280;36461;52.018;21.036;2022-11-12T14:46:49;101864.97;;;9.55;83.88
35507;BME280;36461;52.018;21.036;2022-11-12T14:49:42;101866.27;;;9.55;83.85
35507;BME280;36461;52.018;21.036;2022-11-12T14:52:31;101860.66;;;9.53;83.94
35507;BME280;36461;52.018;21.036;2022-11-12T14:55:22;101866.30;;;9.52;84.02
35507;BME280;36461;52.018;21.036;2022-11-12T14:58:15;101861.52;;;9.52;83.91
35507;BME280;36461;52.018;21.036;2022-11-12T15:01:23;101861.97;;;9.51;84.04
35507;BME280;36461;52.018;21.036;2022-11-12T15:07:03;101864.55;;;9.53;84.31
35507;BME280;36461;52.018;21.036;2022-11-12T15:09:49;101866.72;;;9.55;84.22
35507;BME280;36461;52.018;21.036;2022-11-12T15:12:35;101869.31;;;9.55;84.23
35507;BME280;36461;52.018;21.036;2022-11-12T15:15:20;101868.86;;;9.55;84.30
35507;BME280;36461;52.018;21.036;2022-11-12T15:18:14;101870.61;;;9.53;84.25
35507;BME280;36461;52.018;21.036;2022-11-12T15:24:02;101871.47;;;9.49;84.51
35507;BME280;36461;52.018;21.036;2022-11-12T15:27:00;101877.54;;;9.48;84.56
35507;BME280;36461;52.018;21.036;2022-11-12T15:29:46;101867.59;;;9.46;84.73
35507;BME280;36461;52.018;21.036;2022-11-12T15:32:33;101878.83;;;9.45;84.80
35507;BME280;36461;52.018;21.036;2022-11-12T15:35:30;101872.79;;;9.45;84.92
35507;BME280;36461;52.018;21.036;2022-11-12T15:38:25;101874.94;;;9.45;84.97
35507;BME280;36461;52.018;21.036;2022-11-12T15:41:20;101882.73;;;9.47;85.06
35507;BME280;36461;52.018;21.036;2022-11-12T15:44:08;101887.02;;;9.49;85.06
35507;BME280;36461;52.018;21.036;2022-11-12T15:46:53;101884.02;;;9.50;85.03
35507;BME280;36461;52.018;21.036;2022-11-12T15:49:50;101883.58;;;9.49;84.91
35507;BME280;36461;52.018;21.036;2022-11-12T15:52:34;101891.38;;;9.44;85.01
35507;BME280;36461;52.018;21.036;2022-11-12T15:55:19;101896.11;;;9.46;85.19
35507;BME280;36461;52.018;21.036;2022-11-12T15:58:06;101901.30;;;9.46;85.24
35507;BME280;36461;52.018;21.036;2022-11-12T16:00:50;101897.84;;;9.47;85.35
35507;BME280;36461;52.018;21.036;2022-11-12T16:03:35;101895.67;;;9.50;85.37
35507;BME280;36461;52.018;21.036;2022-11-12T16:06:20;101893.50;;;9.49;85.43
35507;BME280;36461;52.018;21.036;2022-11-12T16:09:05;101899.13;;;9.50;85.60